Time;durP1;ratioP1;P1;durP2;ratioP2;P2;SDS_P1;SDS_P2;PMS_P1;PMS_P2;Temp;Humidity;BMP_temperature;BMP_pressure;BME280_temperature;BME280_humidity;BME280_pressure;Samples;Min_cycle;Max_cycle;Signal;HPM_P1;HPM_P2
2023/01/18 00:00:45;;;;;;;5.07;3.40;;;-2.50;99.90;;;;;;5017561;28;20485;-69
2023/01/18 00:03:12;;;;;;;6.72;3.53;;;-2.60;99.90;;;;;;5027762;28;20041;-69
2023/01/18 00:05:40;;;;;;;6.00;3.83;;;-2.70;99.90;;;;;;5026462;28;20021;-70
2023/01/18 00:08:10;;;;;;;7.40;3.28;;;-2.60;99.90;;;;;;5028152;28;20021;-70
2023/01/18 00:10:36;;;;;;;5.38;3.22;;;-2.60;99.90;;;;;;5029735;28;20026;-70
2023/01/18 00:13:03;;;;;;;5.30;3.17;;;-2.60;99.90;;;;;;5024316;28;20031;-70
2023/01/18 00:15:31;;;;;;;5.88;3.53;;;-2.60;99.90;;;;;;5030676;28;20029;-70
2023/01/18 00:17:56;;;;;;;5.60;3.35;;;-2.60;99.90;;;;;;5020989;28;20045;-70
2023/01/18 00:20:24;;;;;;;5.40;3.33;;;-2.60;99.90;;;;;;5025762;28;20111;-69
2023/01/18 00:22:50;;;;;;;6.50;3.30;;;-2.60;99.90;;;;;;5029503;28;20041;-69
2023/01/18 00:25:20;;;;;;;5.70;2.97;;;-2.60;99.90;;;;;;5024656;28;20462;-69
2023/01/18 00:27:49;;;;;;;4.80;2.70;;;-2.60;99.90;;;;;;5027670;28;20040;-70
2023/01/18 00:30:22;;;;;;;4.32;2.53;;;-2.70;99.90;;;;;;5023100;28;20056;-70
2023/01/18 00:32:49;;;;;;;5.80;3.05;;;-2.70;99.90;;;;;;5029448;28;20428;-70
2023/01/18 00:35:14;;;;;;;5.40;2.75;;;-2.90;99.90;;;;;;5027220;28;20021;-72
2023/01/18 00:37:41;;;;;;;7.68;3.17;;;-3.00;99.90;;;;;;5028111;28;20441;-69
2023/01/18 00:40:07;;;;;;;4.45;2.67;;;-3.00;99.90;;;;;;5024999;28;20032;-70
2023/01/18 00:45:18;;;;;;;3.63;2.42;;;-2.90;99.90;;;;;;5022536;28;20064;-70
2023/01/18 00:47:44;;;;;;;4.53;2.30;;;-3.00;99.90;;;;;;5025752;28;20113;-71
2023/01/18 00:50:10;;;;;;;5.93;2.80;;;-3.10;99.90;;;;;;5024446;28;20108;-71
2023/01/18 00:52:37;;;;;;;6.65;3.50;;;-3.00;99.90;;;;;;5024164;28;20389;-70
2023/01/18 00:55:04;;;;;;;6.10;3.45;;;-3.00;99.90;;;;;;5024989;28;20022;-70
2023/01/18 00:57:30;;;;;;;4.60;2.72;;;-2.90;99.90;;;;;;5023235;28;20037;-69
2023/01/18 00:59:56;;;;;;;7.38;3.17;;;-2.90;99.90;;;;;;5026346;28;20026;-69
2023/01/18 01:02:22;;;;;;;8.68;4.13;;;-3.00;99.90;;;;;;5019627;28;20026;-69
2023/01/18 01:07:32;;;;;;;4.50;2.50;;;-3.00;99.90;;;;;;5024520;28;20453;-70
2023/01/18 01:09:58;;;;;;;4.35;2.70;;;-3.10;99.90;;;;;;5028388;28;20072;-71
2023/01/18 01:26:12;;;;;;;3.47;2.50;;;-2.90;99.90;;;;;;5021075;28;20036;-71
2023/01/18 01:28:39;;;;;;;4.75;2.78;;;-2.90;99.90;;;;;;5025546;28;20466;-69
2023/01/18 01:31:07;;;;;;;4.93;2.70;;;-2.90;99.90;;;;;;5025726;28;20445;-69
2023/01/18 01:33:35;;;;;;;3.20;2.15;;;-3.00;99.90;;;;;;5016245;28;20482;-70
2023/01/18 01:36:09;;;;;;;4.10;2.33;;;-3.00;99.90;;;;;;5028243;28;20036;-70
2023/01/18 01:38:34;;;;;;;3.75;1.90;;;-2.90;99.90;;;;;;5020016;28;20030;-69
2023/01/18 01:41:03;;;;;;;3.38;1.95;;;-3.00;99.90;;;;;;5027427;28;20055;-69
2023/01/18 01:43:37;;;;;;;3.35;2.13;;;-2.90;99.90;;;;;;5041048;28;20064;-71
2023/01/18 01:46:09;;;;;;;5.53;2.25;;;-3.00;99.90;;;;;;5024821;28;20067;-69
2023/01/18 01:48:35;;;;;;;6.35;2.05;;;-3.10;99.90;;;;;;5026670;28;20029;-70
2023/01/18 01:51:01;;;;;;;4.30;2.47;;;-3.10;99.90;;;;;;5023072;28;20129;-69
2023/01/18 01:53:28;;;;;;;3.05;1.73;;;-3.00;99.90;;;;;;5029767;28;20033;-70
2023/01/18 01:55:54;;;;;;;5.43;2.60;;;-3.00;99.90;;;;;;5024213;28;20087;-70
2023/01/18 01:58:28;;;;;;;5.00;2.72;;;-3.10;99.90;;;;;;5025007;28;20380;-69
2023/01/18 02:00:54;;;;;;;5.85;2.10;;;-3.10;99.90;;;;;;5014260;28;20053;-70
2023/01/18 02:03:21;;;;;;;4.40;1.92;;;-3.10;99.90;;;;;;5013957;28;20073;-70
2023/01/18 02:05:53;;;;;;;3.85;2.22;;;-3.10;99.90;;;;;;5021746;28;20026;-70
2023/01/18 02:08:22;;;;;;;;;;;-3.10;99.90;;;;;;5020345;28;20080;-70
2023/01/18 02:10:51;;;;;;;3.35;1.77;;;-3.20;99.90;;;;;;5024874;28;20353;-70
2023/01/18 02:13:19;;;;;;;5.80;1.90;;;-3.20;99.90;;;;;;5019865;28;20056;-69
2023/01/18 02:16:24;;;;;;;4.43;2.22;;;-3.20;99.90;;;;;;5026919;28;20029;-70
2023/01/18 02:18:56;;;;;;;4.88;2.13;;;-3.30;99.90;;;;;;5026105;28;20025;-70
2023/01/18 02:21:34;;;;;;;3.65;2.00;;;-3.30;99.90;;;;;;5021195;28;20033;-71
2023/01/18 02:24:24;;;;;;;3.05;1.42;;;-3.20;99.90;;;;;;5023805;28;20623;-70
2023/01/18 02:27:00;;;;;;;2.58;1.92;;;-3.10;99.90;;;;;;5026055;28;20034;-70
2023/01/18 02:29:54;;;;;;;4.80;2.17;;;-3.00;99.90;;;;;;5026235;28;20040;-69
2023/01/18 02:32:31;;;;;;;4.93;1.80;;;-3.00;99.90;;;;;;5028775;28;20033;-70
2023/01/18 02:35:08;;;;;;;3.83;1.77;;;-2.90;99.90;;;;;;5028078;28;20497;-70
2023/01/18 02:37:41;;;;;;;4.30;2.72;;;-2.90;99.90;;;;;;5017428;28;20036;-70
2023/01/18 02:40:36;;;;;;;4.70;2.95;;;-2.90;99.90;;;;;;5023252;28;20021;-70
2023/01/18 02:48:41;;;;;;;5.13;2.22;;;-2.70;99.90;;;;;;5025002;28;20042;-70
2023/01/18 02:51:08;;;;;;;4.03;2.63;;;-2.70;99.90;;;;;;5022549;28;20178;-70
2023/01/18 02:53:39;;;;;;;2.60;1.92;;;-2.70;99.90;;;;;;5030867;28;20057;-70
2023/01/18 02:56:43;;;;;;;3.83;2.10;;;-2.60;99.90;;;;;;5028133;28;20366;-69
2023/01/18 02:59:21;;;;;;;3.33;2.00;;;-2.60;99.90;;;;;;5003011;28;20573;-70
2023/01/18 03:01:58;;;;;;;2.72;1.63;;;-2.50;99.90;;;;;;5024158;28;20032;-70
2023/01/18 03:04:38;;;;;;;3.45;1.88;;;-2.50;99.90;;;;;;5025245;28;20037;-70
2023/01/18 03:07:15;;;;;;;6.07;2.08;;;-2.50;99.90;;;;;;5025600;28;20037;-68
2023/01/18 03:09:43;;;;;;;5.18;1.73;;;-2.60;99.90;;;;;;5025972;28;20423;-71
2023/01/18 03:12:44;;;;;;;5.15;1.77;;;-2.70;99.90;;;;;;5028548;28;20131;-70
2023/01/18 03:15:22;;;;;;;4.35;1.90;;;-2.70;99.90;;;;;;5027273;28;20120;-69
2023/01/18 03:17:57;;;;;;;9.80;2.35;;;-2.70;99.90;;;;;;5028309;28;20052;-70
2023/01/18 03:20:27;;;;;;;3.67;2.10;;;-2.70;99.90;;;;;;5024049;28;20607;-69
2023/01/18 03:26:05;;;;;;;5.60;1.27;;;-2.80;99.90;;;;;;5021549;28;20441;-71
2023/01/18 03:34:51;;;;;;;2.63;1.40;;;-2.90;99.90;;;;;;5024035;28;20056;-70
2023/01/18 03:37:31;;;;;;;3.33;1.90;;;-2.90;99.90;;;;;;5039479;28;20393;-69
2023/01/18 03:40:03;;;;;;;5.90;2.38;;;-2.80;99.90;;;;;;5030273;28;20021;-70
2023/01/18 03:42:47;;;;;;;;;;;-2.80;99.90;;;;;;5022010;28;20037;-70
2023/01/18 03:45:36;;;;;;;2.92;1.50;;;-2.90;99.90;;;;;;5027653;28;19917;-70
2023/01/18 03:48:04;;;;;;;3.30;1.48;;;-3.00;99.90;;;;;;5022080;28;20022;-70
2023/01/18 03:50:47;;;;;;;2.97;1.63;;;-3.00;99.90;;;;;;5028137;28;20132;-70
2023/01/18 03:53:28;;;;;;;7.13;1.30;;;-2.90;99.90;;;;;;5025720;28;20490;-70
2023/01/18 03:56:04;;;;;;;4.30;1.80;;;-2.80;99.90;;;;;;5025764;28;20363;-69
2023/01/18 03:58:34;;;;;;;3.75;1.40;;;-2.70;99.90;;;;;;5025026;28;20022;-70
2023/01/18 04:01:02;;;;;;;6.00;1.75;;;-2.50;99.90;;;;;;5026889;28;20053;-69
2023/01/18 04:03:31;;;;;;;3.58;1.58;;;-2.50;99.90;;;;;;5023936;28;20465;-70
2023/01/18 04:05:58;;;;;;;5.47;2.38;;;-2.60;99.90;;;;;;5025094;28;20536;-70
2023/01/18 04:08:24;;;;;;;2.15;1.30;;;-2.70;99.90;;;;;;5023366;28;20034;-71
2023/01/18 04:10:50;;;;;;;6.25;2.22;;;-2.80;99.90;;;;;;5025943;28;20101;-70
2023/01/18 04:13:15;;;;;;;5.07;1.65;;;-2.70;99.90;;;;;;5023106;28;20108;-70
2023/01/18 04:15:41;;;;;;;4.10;1.98;;;-2.70;99.90;;;;;;5025311;28;20026;-70
2023/01/18 04:18:07;;;;;;;2.60;1.92;;;-2.60;99.90;;;;;;5023712;28;20040;-71
2023/01/18 04:20:33;;;;;;;3.83;1.98;;;-2.50;99.90;;;;;;5028250;28;20056;-69
2023/01/18 04:22:58;;;;;;;5.70;1.90;;;-2.60;99.90;;;;;;5029553;28;20082;-70
2023/01/18 04:25:24;;;;;;;5.22;3.08;;;-2.60;99.90;;;;;;5025721;28;20025;-69
2023/01/18 04:27:50;;;;;;;3.47;2.17;;;-2.70;99.90;;;;;;5020150;28;20034;-70
2023/01/18 04:30:16;;;;;;;4.53;2.00;;;-2.70;99.90;;;;;;5019780;28;20022;-71
2023/01/18 04:32:44;;;;;;;10.48;2.45;;;-2.70;99.90;;;;;;5030951;28;20079;-70
2023/01/18 04:35:11;;;;;;;2.83;2.30;;;-2.70;99.90;;;;;;5022770;28;20033;-70
2023/01/18 04:37:37;;;;;;;4.05;2.08;;;-2.60;99.90;;;;;;5026773;28;20033;-70
2023/01/18 04:40:05;;;;;;;6.30;2.00;;;-2.70;99.90;;;;;;5029438;28;20026;-70
2023/01/18 04:42:30;;;;;;;2.83;2.00;;;-2.70;99.90;;;;;;5027902;23;20057;-66
2023/01/18 04:44:57;;;;;;;4.93;2.40;;;-2.70;99.90;;;;;;5026143;28;20211;-67
2023/01/18 04:47:23;;;;;;;4.13;1.70;;;-2.70;99.90;;;;;;5022170;28;20616;-67
2023/01/18 04:49:48;;;;;;;5.03;2.00;;;-2.70;99.90;;;;;;5023416;28;20037;-67
2023/01/18 04:52:14;;;;;;;3.00;1.75;;;-2.70;99.90;;;;;;5021652;28;20567;-67
2023/01/18 04:54:40;;;;;;;4.57;1.90;;;-2.70;99.90;;;;;;5026042;28;20021;-68
2023/01/18 04:57:06;;;;;;;6.28;3.15;;;-2.80;99.90;;;;;;5021066;28;20041;-67
2023/01/18 04:59:32;;;;;;;3.40;2.20;;;-2.60;99.90;;;;;;5025651;28;20029;-67
2023/01/18 05:01:58;;;;;;;4.88;2.22;;;-2.50;99.90;;;;;;5025987;28;20029;-67
2023/01/18 05:04:24;;;;;;;6.05;2.15;;;-2.60;99.90;;;;;;5022427;28;20042;-68
2023/01/18 05:06:50;;;;;;;3.40;1.83;;;-2.70;99.90;;;;;;5025050;28;20030;-68
2023/01/18 05:09:15;;;;;;;4.07;1.90;;;-2.80;99.90;;;;;;5022490;28;20449;-67
2023/01/18 05:11:42;;;;;;;4.88;1.98;;;-2.70;99.90;;;;;;5020439;28;20072;-67
2023/01/18 05:14:08;;;;;;;5.30;2.15;;;-2.50;99.90;;;;;;5022997;28;20061;-67
2023/01/18 05:16:34;;;;;;;5.00;1.50;;;-2.50;99.90;;;;;;5021801;28;20500;-67
2023/01/18 05:19:00;;;;;;;3.70;1.67;;;-2.60;99.90;;;;;;5025114;28;20026;-67
2023/01/18 05:21:27;;;;;;;5.13;1.50;;;-2.60;99.90;;;;;;5020125;28;20375;-67
2023/01/18 05:23:53;;;;;;;2.55;1.70;;;-2.60;99.90;;;;;;5023930;28;20041;-68
2023/01/18 05:26:22;;;;;;;3.45;1.42;;;-2.60;99.90;;;;;;5022935;28;20032;-69
2023/01/18 05:28:49;;;;;;;2.92;1.60;;;-2.50;99.90;;;;;;5023541;28;20052;-68
2023/01/18 05:31:17;;;;;;;2.95;1.80;;;-2.50;99.90;;;;;;5023461;28;20022;-68
2023/01/18 05:33:43;;;;;;;3.17;1.60;;;-2.30;99.90;;;;;;5022604;28;20033;-68
2023/01/18 05:36:09;;;;;;;3.47;1.48;;;-2.20;99.90;;;;;;5023455;28;20025;-68
2023/01/18 05:38:34;;;;;;;3.83;1.65;;;-2.10;99.90;;;;;;5023280;28;20026;-67
2023/01/18 05:41:00;;;;;;;2.35;1.33;;;-2.10;99.90;;;;;;5024700;28;20124;-67
2023/01/18 05:43:27;;;;;;;3.13;1.38;;;-2.10;99.90;;;;;;5023124;28;20104;-68
2023/01/18 05:45:53;;;;;;;5.45;1.70;;;-2.10;99.90;;;;;;5022388;28;20049;-68
2023/01/18 05:48:19;;;;;;;7.20;1.75;;;-2.20;99.90;;;;;;5025070;28;20032;-68
2023/01/18 05:50:47;;;;;;;5.05;1.30;;;-2.20;99.90;;;;;;5027887;28;20018;-68
2023/01/18 05:53:17;;;;;;;4.28;1.27;;;-2.20;99.90;;;;;;5030173;28;20021;-68
2023/01/18 05:55:43;;;;;;;3.90;1.38;;;-2.20;99.90;;;;;;5028128;28;20056;-68
2023/01/18 05:58:09;;;;;;;2.40;0.93;;;-2.20;99.90;;;;;;5026934;28;20034;-68
2023/01/18 06:00:35;;;;;;;4.07;1.40;;;-2.20;99.90;;;;;;5029216;28;20060;-68
2023/01/18 06:03:01;;;;;;;7.10;1.48;;;-2.20;99.90;;;;;;5031583;28;20420;-69
2023/01/18 06:05:27;;;;;;;4.28;1.55;;;-2.10;99.90;;;;;;5027915;28;20447;-68
2023/01/18 06:07:53;;;;;;;3.03;1.42;;;-2.00;99.90;;;;;;5030337;28;20030;-68
2023/01/18 06:10:18;;;;;;;9.02;1.48;;;-2.00;99.90;;;;;;5033222;28;20087;-68
2023/01/18 06:12:44;;;;;;;3.53;1.30;;;-1.80;99.90;;;;;;5029508;28;20022;-68
2023/01/18 06:15:11;;;;;;;4.32;2.35;;;-2.00;99.90;;;;;;5032682;28;20388;-67
2023/01/18 06:17:38;;;;;;;2.13;1.17;;;-2.00;99.90;;;;;;5033218;28;20029;-68
2023/01/18 06:20:05;;;;;;;4.05;1.20;;;-2.00;99.90;;;;;;5018430;28;20034;-68
2023/01/18 06:22:31;;;;;;;6.15;1.50;;;-1.70;99.90;;;;;;5033577;28;20045;-68
2023/01/18 06:24:57;;;;;;;6.00;1.42;;;-1.40;99.90;;;;;;5033175;28;20025;-68
2023/01/18 06:27:22;;;;;;;1.95;1.27;;;-1.30;99.90;;;;;;5031372;28;20041;-68
2023/01/18 06:29:49;;;;;;;2.65;1.90;;;-1.30;99.90;;;;;;5028241;28;20022;-68
2023/01/18 06:32:14;;;;;;;4.63;1.80;;;-1.40;99.90;;;;;;5026148;28;20044;-68
2023/01/18 06:34:40;;;;;;;2.00;1.02;;;-1.50;99.90;;;;;;5023745;28;20501;-67
2023/01/18 06:37:07;;;;;;;3.05;1.33;;;-1.60;99.90;;;;;;5026006;28;20022;-68
2023/01/18 06:39:34;;;;;;;2.95;1.25;;;-1.50;99.90;;;;;;5016706;28;20040;-68
2023/01/18 06:42:00;;;;;;;2.85;1.70;;;-1.30;99.90;;;;;;5026583;28;20385;-67
2023/01/18 06:44:25;;;;;;;5.55;1.50;;;-1.30;99.90;;;;;;5030846;28;20103;-68
2023/01/18 06:46:51;;;;;;;6.68;1.98;;;-1.50;99.90;;;;;;5027568;28;20056;-68
2023/01/18 06:49:17;;;;;;;5.40;1.63;;;-1.50;99.90;;;;;;5017881;28;20367;-69
2023/01/18 06:51:43;;;;;;;3.85;1.63;;;-1.40;99.90;;;;;;5029077;28;20025;-67
2023/01/18 06:54:09;;;;;;;5.57;1.38;;;-1.60;99.90;;;;;;5026109;28;20099;-68
2023/01/18 06:56:34;;;;;;;3.65;1.63;;;-1.50;99.90;;;;;;5032086;28;20025;-69
2023/01/18 06:59:00;;;;;;;1.95;1.23;;;-1.60;99.90;;;;;;5029657;28;20029;-68
2023/01/18 07:01:27;;;;;;;9.48;1.52;;;-1.40;99.90;;;;;;5027906;28;20029;-68
2023/01/18 07:03:53;;;;;;;4.45;1.63;;;-1.20;99.90;;;;;;5018498;28;20042;-67
2023/01/18 07:06:19;;;;;;;5.65;1.95;;;-1.10;99.90;;;;;;5029013;28;20033;-68
2023/01/18 07:08:45;;;;;;;4.95;1.70;;;-1.20;99.90;;;;;;5029104;28;20029;-67
2023/01/18 07:11:12;;;;;;;4.35;1.10;;;-1.20;99.90;;;;;;5017184;28;20041;-67
2023/01/18 07:13:42;;;;;;;3.15;1.35;;;-1.10;99.90;;;;;;5024404;28;20025;-67
2023/01/18 07:16:12;;;;;;;5.53;1.63;;;-1.10;99.90;;;;;;5021658;28;20030;-67
2023/01/18 07:18:42;;;;;;;5.95;2.20;;;-1.20;99.90;;;;;;5030056;28;20025;-67
2023/01/18 07:21:08;;;;;;;9.30;1.63;;;-1.20;99.90;;;;;;5020092;28;20037;-66
2023/01/18 07:23:39;;;;;;;4.30;1.70;;;-1.10;99.90;;;;;;5021424;28;20041;-68
2023/01/18 07:26:07;;;;;;;6.78;1.80;;;-1.00;99.90;;;;;;5018105;28;20029;-66
2023/01/18 07:28:35;;;;;;;4.05;1.80;;;-1.00;99.90;;;;;;5017908;28;20121;-67
2023/01/18 07:31:01;;;;;;;2.80;1.23;;;-0.90;99.90;;;;;;5025871;28;20045;-67
2023/01/18 07:33:28;;;;;;;2.70;1.33;;;-0.90;99.90;;;;;;5024120;28;20115;-67
2023/01/18 07:35:55;;;;;;;4.93;1.80;;;-0.90;99.90;;;;;;5023492;28;20014;-67
2023/01/18 07:38:21;;;;;;;3.95;1.70;;;-0.90;99.90;;;;;;5024471;28;20041;-66
2023/01/18 07:40:48;;;;;;;4.40;1.25;;;-0.80;99.90;;;;;;5030587;28;20057;-67
2023/01/18 07:43:14;;;;;;;2.00;1.17;;;-0.80;99.90;;;;;;5027401;28;20136;-68
2023/01/18 07:45:41;;;;;;;2.95;1.40;;;-0.80;99.90;;;;;;5030694;28;20032;-67
2023/01/18 07:48:06;;;;;;;3.05;1.52;;;-0.80;99.90;;;;;;5028873;28;20052;-67
2023/01/18 07:50:32;;;;;;;5.80;1.70;;;-0.80;99.90;;;;;;5029432;28;20381;-68
2023/01/18 07:53:07;;;;;;;3.92;1.45;;;-0.80;99.90;;;;;;5030572;28;20025;-68
2023/01/18 07:55:33;;;;;;;4.78;1.38;;;-0.70;99.90;;;;;;5025778;28;20037;-68
2023/01/18 07:58:00;;;;;;;5.38;1.70;;;-0.80;99.90;;;;;;5027114;28;20124;-68
2023/01/18 08:00:26;;;;;;;5.15;1.75;;;-0.80;99.90;;;;;;5026748;28;20072;-68
2023/01/18 08:02:53;;;;;;;6.13;1.58;;;-0.80;99.90;;;;;;5029012;28;20116;-68
2023/01/18 08:05:22;;;;;;;3.83;1.70;;;-0.80;99.90;;;;;;5023741;28;20060;-67
2023/01/18 08:07:49;;;;;;;2.80;1.50;;;-0.70;99.90;;;;;;5028128;28;20030;-67
2023/01/18 08:10:16;;;;;;;3.70;2.00;;;-0.80;99.90;;;;;;5027471;28;20026;-67
2023/01/18 08:12:42;;;;;;;4.13;1.83;;;-0.80;99.90;;;;;;5029042;28;20033;-67
2023/01/18 08:15:08;;;;;;;6.10;1.70;;;-0.70;99.90;;;;;;5027689;28;20092;-68
2023/01/18 08:17:34;;;;;;;8.98;1.70;;;-0.70;99.90;;;;;;5029860;28;20021;-68
2023/01/18 08:20:00;;;;;;;4.00;1.48;;;-0.60;99.90;;;;;;5029367;28;20469;-68
2023/01/18 08:22:26;;;;;;;8.77;2.10;;;-0.50;99.90;;;;;;5021046;28;20034;-68
2023/01/18 08:24:52;;;;;;;4.18;1.65;;;-0.40;99.90;;;;;;5019018;28;20104;-67
2023/01/18 08:27:18;;;;;;;2.60;1.45;;;-0.40;99.90;;;;;;5022321;28;20152;-69
2023/01/18 08:29:45;;;;;;;1.88;1.33;;;-0.30;99.90;;;;;;5025444;28;20100;-70
2023/01/18 08:32:11;;;;;;;4.70;1.65;;;-0.30;99.90;;;;;;5024181;28;20037;-69
2023/01/18 08:34:37;;;;;;;7.40;2.15;;;-0.30;99.90;;;;;;5024823;28;20040;-68
2023/01/18 08:37:04;;;;;;;7.57;2.30;;;-0.40;99.90;;;;;;5023233;28;20029;-67
2023/01/18 08:39:30;;;;;;;5.15;1.60;;;-0.30;99.90;;;;;;5024973;28;20085;-67
2023/01/18 08:41:56;;;;;;;6.32;1.88;;;-0.30;99.90;;;;;;5026638;28;20496;-68
2023/01/18 08:44:22;;;;;;;3.85;1.70;;;-0.30;99.90;;;;;;5022965;28;20064;-69
2023/01/18 08:46:48;;;;;;;4.68;2.78;;;-0.40;99.90;;;;;;5021957;28;20029;-69
2023/01/18 08:49:15;;;;;;;7.60;2.95;;;-0.40;99.90;;;;;;5022065;28;20451;-69
2023/01/18 08:51:41;;;;;;;5.53;1.77;;;-0.50;99.90;;;;;;5029429;28;20493;-69
2023/01/18 08:54:07;;;;;;;7.65;2.47;;;-0.40;99.90;;;;;;5026309;28;20033;-70
2023/01/18 08:56:33;;;;;;;6.28;3.42;;;-0.40;99.90;;;;;;5023814;28;20033;-68
2023/01/18 08:58:59;;;;;;;6.28;1.92;;;-0.30;99.90;;;;;;5024849;28;20030;-67
2023/01/18 09:01:25;;;;;;;8.23;2.30;;;-0.20;99.90;;;;;;5023082;28;20428;-67
2023/01/18 09:03:55;;;;;;;8.20;2.97;;;-0.20;99.90;;;;;;5025472;28;20041;-68
2023/01/18 09:06:21;;;;;;;5.68;2.00;;;-0.30;99.90;;;;;;5021419;28;20474;-68
2023/01/18 09:08:47;;;;;;;6.68;1.88;;;-0.10;99.90;;;;;;5022044;28;20036;-69
2023/01/18 09:11:13;;;;;;;4.93;2.03;;;0.00;99.90;;;;;;5021935;28;20491;-68
2023/01/18 09:13:40;;;;;;;8.32;2.75;;;0.10;99.90;;;;;;5024427;28;20381;-68
2023/01/18 09:16:08;;;;;;;7.43;2.38;;;0.10;99.90;;;;;;5023741;28;20354;-68
2023/01/18 09:18:34;;;;;;;5.57;2.72;;;0.10;99.90;;;;;;5023134;28;20026;-68
2023/01/18 09:21:08;;;;;;;8.77;2.40;;;0.00;99.90;;;;;;5023841;28;20028;-67
2023/01/18 09:23:35;;;;;;;7.05;2.60;;;-0.10;99.90;;;;;;5019266;28;20044;-68
2023/01/18 09:26:08;;;;;;;11.05;2.78;;;-0.10;99.90;;;;;;5023980;28;20033;-69
2023/01/18 09:28:35;;;;;;;3.20;2.10;;;0.00;99.90;;;;;;5022893;28;20064;-69
2023/01/18 09:31:03;;;;;;;6.97;2.83;;;0.00;99.90;;;;;;5023277;28;20029;-68
2023/01/18 09:33:29;;;;;;;3.85;1.85;;;0.10;99.90;;;;;;5022897;28;20462;-69
2023/01/18 09:35:56;;;;;;;6.68;3.72;;;0.10;99.90;;;;;;5024996;28;20029;-68
2023/01/18 09:38:22;;;;;;;3.88;2.67;;;0.30;99.90;;;;;;5021324;28;20029;-68
2023/01/18 09:40:50;;;;;;;5.75;2.15;;;0.40;99.90;;;;;;5024508;28;20117;-68
2023/01/18 09:43:25;;;;;;;6.50;2.45;;;0.40;99.90;;;;;;5018271;28;20060;-69
2023/01/18 09:45:51;;;;;;;3.92;2.53;;;0.30;99.90;;;;;;5022388;28;20383;-68
2023/01/18 09:48:28;;;;;;;5.60;2.30;;;0.30;99.90;;;;;;5024942;28;20048;-69
2023/01/18 09:50:57;;;;;;;5.78;2.30;;;0.30;99.90;;;;;;5021038;28;20027;-70
2023/01/18 09:53:28;;;;;;;5.45;2.22;;;0.20;99.90;;;;;;5024904;28;20033;-68
2023/01/18 09:56:25;;;;;;;3.78;2.20;;;0.30;99.90;;;;;;5024433;28;20036;-69
2023/01/18 09:58:56;;;;;;;4.00;2.13;;;0.30;99.90;;;;;;5023154;28;20397;-67
2023/01/18 10:01:26;;;;;;;8.70;2.90;;;0.30;99.90;;;;;;5022179;28;20025;-67
2023/01/18 10:04:01;;;;;;;9.57;3.17;;;0.30;99.90;;;;;;5025974;28;20045;-67
2023/01/18 10:06:50;;;;;;;9.55;2.70;;;0.30;99.90;;;;;;5022158;28;20442;-68
2023/01/18 10:09:22;;;;;;;8.63;2.67;;;0.30;99.90;;;;;;5017698;28;20025;-68
2023/01/18 10:12:24;;;;;;;4.80;2.58;;;0.30;99.90;;;;;;5024404;28;20500;-67
2023/01/18 10:15:19;;;;;;;4.10;2.22;;;0.40;99.90;;;;;;5023535;28;20037;-68
2023/01/18 10:17:45;;;;;;;8.40;2.75;;;0.60;99.90;;;;;;5021693;28;20422;-68
2023/01/18 10:20:31;;;;;;;12.73;3.25;;;0.60;99.90;;;;;;5021475;28;20061;-68
2023/01/18 10:23:11;;;;;;;5.38;2.38;;;0.70;99.90;;;;;;5023959;28;20038;-69
2023/01/18 10:25:51;;;;;;;8.02;2.63;;;0.60;99.90;;;;;;5019877;28;20057;-67
2023/01/18 10:28:38;;;;;;;5.25;2.75;;;0.70;99.90;;;;;;5011134;28;20065;-68
2023/01/18 10:31:15;;;;;;;6.88;2.88;;;0.80;99.90;;;;;;5024660;28;20512;-68
2023/01/18 10:33:43;;;;;;;9.00;3.00;;;0.80;99.90;;;;;;5021085;28;20133;-68
2023/01/18 10:36:17;;;;;;;9.40;3.40;;;0.90;99.90;;;;;;5025528;28;20033;-68
2023/01/18 10:38:45;;;;;;;7.00;2.75;;;1.10;99.90;;;;;;5026663;28;20112;-68
2023/01/18 10:41:26;;;;;;;5.97;2.70;;;1.20;99.90;;;;;;5024742;28;20525;-68
2023/01/18 10:43:53;;;;;;;6.30;2.70;;;1.20;99.90;;;;;;5016700;28;20096;-67
2023/01/18 10:46:19;;;;;;;5.88;2.63;;;1.20;99.90;;;;;;5024372;28;20029;-68
2023/01/18 10:48:51;;;;;;;8.32;2.75;;;1.20;99.90;;;;;;5028485;28;20116;-68
2023/01/18 10:51:27;;;;;;;4.55;1.90;;;1.30;99.90;;;;;;5022699;28;20025;-68
2023/01/18 10:53:53;;;;;;;3.10;1.60;;;1.40;99.90;;;;;;5027073;28;20026;-67
2023/01/18 10:56:24;;;;;;;7.93;1.67;;;1.70;99.90;;;;;;5025260;28;20036;-68
2023/01/18 10:58:50;;;;;;;3.40;1.23;;;1.90;99.90;;;;;;5027119;28;20028;-68
2023/01/18 11:01:23;;;;;;;1.85;1.20;;;2.10;99.90;;;;;;5025033;28;20405;-68
2023/01/18 11:04:06;;;;;;;3.25;1.35;;;2.20;99.90;;;;;;5021502;28;20037;-68
2023/01/18 11:06:49;;;;;;;4.32;1.08;;;2.40;99.90;;;;;;5023210;28;20021;-68
2023/01/18 11:09:48;;;;;;;2.30;1.30;;;2.40;99.90;;;;;;5023464;28;20079;-68
2023/01/18 11:12:36;;;;;;;6.43;1.50;;;2.40;99.90;;;;;;5018281;28;20034;-67
2023/01/18 11:15:14;;;;;;;4.35;1.00;;;2.40;99.90;;;;;;5023367;28;20033;-68
2023/01/18 11:17:53;;;;;;;5.90;1.13;;;2.30;99.90;;;;;;5023894;28;20033;-68
2023/01/18 11:20:28;;;;;;;3.17;1.02;;;2.40;99.90;;;;;;5023866;28;20034;-68
2023/01/18 11:23:14;;;;;;;4.35;1.08;;;2.60;99.90;;;;;;5028100;28;20032;-68
2023/01/18 11:26:03;;;;;;;6.93;1.63;;;2.60;99.90;;;;;;5022916;28;20026;-68
2023/01/18 11:28:28;;;;;;;4.60;1.00;;;2.70;99.90;;;;;;5017034;28;20153;-69
2023/01/18 11:31:16;;;;;;;4.95;1.38;;;2.80;99.90;;;;;;5027305;28;20459;-68
2023/01/18 11:33:53;;;;;;;1.63;1.13;;;3.10;99.90;;;;;;5024675;28;20075;-69
2023/01/18 11:36:32;;;;;;;3.17;1.25;;;3.80;99.90;;;;;;5022510;28;20473;-68
2023/01/18 11:39:20;;;;;;;5.85;1.30;;;4.40;99.90;;;;;;5025445;28;20474;-69
2023/01/18 11:41:47;;;;;;;5.88;1.80;;;4.80;99.90;;;;;;5019307;28;20071;-67
2023/01/18 11:44:27;;;;;;;3.60;1.00;;;5.10;99.90;;;;;;5023749;28;20440;-68
2023/01/18 11:46:57;;;;;;;2.55;1.05;;;5.40;99.90;;;;;;5022767;28;20112;-68
2023/01/18 11:49:41;;;;;;;6.85;1.30;;;5.60;99.90;;;;;;5024423;28;20125;-68
2023/01/18 11:52:42;;;;;;;3.13;0.95;;;5.70;99.90;;;;;;5023779;28;20051;-68
2023/01/18 11:55:30;;;;;;;5.40;1.30;;;6.30;99.90;;;;;;5023305;28;20057;-69
2023/01/18 11:57:58;;;;;;;3.33;1.00;;;6.50;99.90;;;;;;5019677;28;20469;-68
2023/01/18 12:00:27;;;;;;;3.75;1.20;;;6.50;99.90;;;;;;5027003;28;20025;-68
2023/01/18 12:03:05;;;;;;;1.70;1.10;;;6.40;99.90;;;;;;5026252;28;20527;-69
2023/01/18 12:05:43;;;;;;;9.30;2.30;;;6.30;99.90;;;;;;5025869;28;20037;-68
2023/01/18 12:08:12;;;;;;;2.97;1.20;;;6.30;99.90;;;;;;5024477;28;20029;-68
2023/01/18 12:11:08;;;;;;;2.83;1.80;;;6.10;99.90;;;;;;5023344;28;20030;-70
2023/01/18 12:13:38;;;;;;;9.18;1.98;;;6.20;99.90;;;;;;5019146;28;20025;-68
2023/01/18 12:16:24;;;;;;;4.35;1.50;;;6.50;99.90;;;;;;5027222;28;20092;-69
2023/01/18 12:19:14;;;;;;;5.80;1.40;;;6.60;99.90;;;;;;5023808;28;20500;-69
2023/01/18 12:22:01;;;;;;;4.82;2.03;;;6.70;99.90;;;;;;5019834;28;20025;-68
2023/01/18 12:24:44;;;;;;;3.97;1.83;;;6.80;99.90;;;;;;5027614;28;20049;-67
2023/01/18 12:27:19;;;;;;;4.82;1.70;;;6.50;99.90;;;;;;5023935;28;20039;-68
2023/01/18 12:30:23;;;;;;;4.15;1.30;;;6.90;99.90;;;;;;5022467;28;20124;-69
2023/01/18 12:33:04;;;;;;;4.95;1.52;;;6.90;99.90;;;;;;4982814;28;20108;-68
2023/01/18 12:35:41;;;;;;;2.38;1.60;;;6.70;99.90;;;;;;4985222;28;20026;-68
2023/01/18 12:38:12;;;;;;;4.05;1.30;;;7.10;99.90;;;;;;4986774;28;20026;-68
2023/01/18 12:40:59;;;;;;;5.00;1.50;;;7.50;99.90;;;;;;4986525;28;20418;-68
2023/01/18 12:43:50;;;;;;;4.80;1.20;;;7.40;99.90;;;;;;4980838;28;20046;-68
2023/01/18 12:46:33;;;;;;;3.63;1.52;;;7.40;99.90;;;;;;4985458;28;20097;-68
2023/01/18 12:49:10;;;;;;;3.95;1.35;;;7.60;99.90;;;;;;4987513;28;20154;-67
2023/01/18 12:51:37;;;;;;;3.28;1.75;;;7.70;99.90;;;;;;4987647;28;20425;-68
2023/01/18 12:54:12;;;;;;;3.28;1.52;;;7.80;99.90;;;;;;4987676;28;20030;-68
2023/01/18 12:56:42;;;;;;;6.45;1.80;;;7.70;99.90;;;;;;4979726;28;20123;-68
2023/01/18 12:59:22;;;;;;;4.85;1.65;;;8.10;99.90;;;;;;4982957;28;20032;-67
2023/01/18 13:01:54;;;;;;;7.32;1.70;;;8.10;99.90;;;;;;4988194;28;20069;-68
2023/01/18 13:04:29;;;;;;;7.82;2.38;;;8.50;99.90;;;;;;4986577;28;20193;-68
2023/01/18 13:07:06;;;;;;;8.15;1.60;;;8.50;99.90;;;;;;4987348;28;20030;-68
2023/01/18 13:09:37;;;;;;;9.38;1.73;;;8.50;99.90;;;;;;5016655;28;20060;-68
2023/01/18 13:12:04;;;;;;;7.30;1.50;;;7.90;99.90;;;;;;5019154;28;20030;-68
2023/01/18 13:15:14;;;;;;;10.20;2.65;;;7.60;99.90;;;;;;5026285;28;20041;-68
2023/01/18 13:18:05;;;;;;;3.08;1.77;;;8.20;99.90;;;;;;5020495;28;20038;-68
2023/01/18 13:20:44;;;;;;;6.07;1.48;;;8.50;99.90;;;;;;5024520;28;20420;-67
2023/01/18 13:23:29;;;;;;;8.63;1.52;;;8.50;99.90;;;;;;5017914;28;20034;-67
2023/01/18 13:26:14;;;;;;;10.77;1.90;;;8.40;99.90;;;;;;5028201;28;20033;-67
2023/01/18 13:28:42;;;;;;;5.90;1.52;;;8.40;99.90;;;;;;5018124;28;20370;-68
2023/01/18 13:31:07;;;;;;;7.00;1.65;;;8.30;99.90;;;;;;5024056;28;20108;-67
2023/01/18 13:33:36;;;;;;;5.20;2.22;;;8.40;99.90;;;;;;5023707;28;20176;-68
2023/01/18 13:36:06;;;;;;;8.23;1.55;;;8.80;99.90;;;;;;5028397;28;20132;-68
2023/01/18 13:38:37;;;;;;;9.60;1.90;;;9.00;99.90;;;;;;5019770;28;20044;-68
2023/01/18 13:41:10;;;;;;;3.05;1.30;;;8.90;99.90;;;;;;5028376;28;20120;-68
2023/01/18 13:43:36;;;;;;;6.28;1.30;;;8.90;99.90;;;;;;5023215;28;20053;-68
2023/01/18 13:46:07;;;;;;;4.40;1.17;;;8.60;99.90;;;;;;5020935;28;20026;-68